createdAt,value
2022-12-29T00:02:32.974Z,99697.84
2022-12-29T00:07:34.623Z,99692.56
2022-12-29T00:12:54.507Z,99697.50
2022-12-29T00:17:55.947Z,99686.59
2022-12-29T00:23:15.767Z,99679.44
2022-12-29T00:28:36.102Z,99658.53
2022-12-29T00:33:56.218Z,99656.69
2022-12-29T00:39:20.218Z,99658.34
2022-12-29T00:44:21.646Z,99656.34
2022-12-29T00:49:31.918Z,99657.94
2022-12-29T00:54:35.383Z,99654.28
2022-12-29T00:59:41.305Z,99642.94
2022-12-29T01:04:42.812Z,99647.97
2022-12-29T01:10:03.271Z,99640.81
2022-12-29T01:15:05.299Z,99633.88
2022-12-29T01:20:07.408Z,99628.63
2022-12-29T01:25:09.112Z,99619.09
2022-12-29T01:30:11.005Z,99619.16
2022-12-29T01:35:12.526Z,99616.56
2022-12-29T01:40:14.236Z,99614.88
2022-12-29T01:45:18.319Z,99606.78
2022-12-29T01:50:27.140Z,99595.53
2022-12-29T01:55:32.303Z,99587.75
2022-12-29T02:00:34.074Z,99576.13
2022-12-29T02:05:43.188Z,99568.50
2022-12-29T02:10:45.753Z,99561.97
2022-12-29T02:16:30.210Z,99553.44
2022-12-29T02:21:50.578Z,99552.59
2022-12-29T02:27:28.052Z,99542.91
2022-12-29T02:32:39.051Z,99548.88
2022-12-29T02:38:15.252Z,99540.41
2022-12-29T02:43:28.850Z,99532.19
2022-12-29T02:48:47.361Z,99542.41
2022-12-29T02:54:07.956Z,99541.38
2022-12-29T02:59:10.599Z,99543.97
2022-12-29T03:04:54.609Z,99529.13
2022-12-29T03:10:15.487Z,99523.47
2022-12-29T03:15:46.089Z,99525.34
2022-12-29T03:20:58.983Z,99521.25
2022-12-29T03:26:05.640Z,99525.34
2022-12-29T03:31:10.116Z,99515.97
2022-12-29T03:36:16.882Z,99484.00
2022-12-29T03:41:25.695Z,99488.81
2022-12-29T03:46:27.288Z,99479.81
2022-12-29T03:51:28.814Z,99479.06
2022-12-29T03:56:30.485Z,99465.75
2022-12-29T04:01:32.121Z,99474.91
2022-12-29T04:06:33.666Z,99453.94
2022-12-29T04:11:35.168Z,99453.09
2022-12-29T04:16:36.897Z,99446.19
2022-12-29T04:21:38.525Z,99443.72
2022-12-29T04:26:40.247Z,99448.59
2022-12-29T04:31:41.728Z,99438.78
2022-12-29T04:36:43.516Z,99426.09
2022-12-29T04:41:44.980Z,99423.50
2022-12-29T04:46:46.571Z,99415.63
2022-12-29T04:51:48.155Z,99396.69
2022-12-29T04:56:49.687Z,99385.47
2022-12-29T05:01:51.251Z,99397.22
2022-12-29T05:06:52.842Z,99385.53
2022-12-29T05:11:54.361Z,99368.56
2022-12-29T05:16:55.871Z,99382.44
2022-12-29T05:21:57.349Z,99384.91
2022-12-29T05:26:58.994Z,99382.28
2022-12-29T05:32:00.495Z,99385.13
2022-12-29T05:37:03.518Z,99376.81
2022-12-29T05:42:05.073Z,99376.72
2022-12-29T05:47:06.593Z,99378.34
2022-12-29T05:52:08.121Z,99383.34
2022-12-29T05:57:09.860Z,99372.97
2022-12-29T06:02:11.664Z,99392.09
2022-12-29T06:07:13.257Z,99404.16
2022-12-29T06:12:15.403Z,99409.78
2022-12-29T06:17:16.833Z,99407.16
2022-12-29T06:22:18.725Z,99412.81
2022-12-29T06:27:20.328Z,99404.16
2022-12-29T06:32:22.098Z,99403.94
2022-12-29T06:37:23.548Z,99415.25
2022-12-29T06:42:25.011Z,99415.41
2022-12-29T06:47:26.454Z,99401.25
2022-12-29T06:52:29.418Z,99407.38
2022-12-29T06:57:30.917Z,99417.47
2022-12-29T07:02:32.472Z,99414.41
2022-12-29T07:07:34.016Z,99415.34
2022-12-29T07:12:35.544Z,99427.66
2022-12-29T07:17:36.960Z,99423.63
2022-12-29T07:22:39.493Z,99427.03
2022-12-29T07:27:40.970Z,99441.25
2022-12-29T07:32:42.645Z,99449.41
2022-12-29T07:37:44.234Z,99451.56
2022-12-29T07:42:45.852Z,99463.97
2022-12-29T07:47:50.801Z,99464.50
2022-12-29T07:52:52.260Z,99490.50
2022-12-29T07:57:55.358Z,99484.44
2022-12-29T08:02:56.807Z,99494.22
2022-12-29T08:07:58.405Z,99505.34
2022-12-29T08:12:59.853Z,99494.69
2022-12-29T08:18:01.941Z,99498.34
2022-12-29T08:23:03.828Z,99500.75
2022-12-29T08:28:05.303Z,99491.59
2022-12-29T08:33:06.776Z,99490.88
2022-12-29T08:38:09.403Z,99494.84
2022-12-29T08:43:10.859Z,99498.84
2022-12-29T08:48:12.326Z,99502.81
2022-12-29T08:53:14.184Z,99509.75
2022-12-29T08:58:17.420Z,99511.13
2022-12-29T09:03:31.486Z,99517.56
2022-12-29T09:08:40.702Z,99517.59
2022-12-29T09:13:42.377Z,99525.50
2022-12-29T09:18:45.199Z,99535.22
2022-12-29T09:23:46.720Z,99534.03
2022-12-29T09:28:48.304Z,99536.47
2022-12-29T09:33:49.756Z,99547.56
2022-12-29T09:38:51.182Z,99547.78
2022-12-29T09:44:19.410Z,99541.09
2022-12-29T09:49:27.320Z,99549.28
2022-12-29T09:54:34.979Z,99533.94
2022-12-29T09:59:42.557Z,99557.47
2022-12-29T10:04:45.211Z,99536.06
2022-12-29T10:10:11.897Z,99544.72
2022-12-29T10:15:36.005Z,99535.78
2022-12-29T10:20:52.376Z,99544.69
2022-12-29T10:25:57.439Z,99533.88
2022-12-29T10:31:06.737Z,99550.03
2022-12-29T10:36:25.339Z,99545.16
2022-12-29T10:41:29.525Z,99538.25
2022-12-29T10:46:35.555Z,99549.25
2022-12-29T10:51:42.202Z,99534.38
2022-12-29T10:56:48.236Z,99531.81
2022-12-29T11:02:02.069Z,99540.56
2022-12-29T11:07:10.575Z,99528.81
2022-12-29T11:12:24.187Z,99551.78
2022-12-29T11:17:25.685Z,99537.75
2022-12-29T11:22:29.459Z,99543.66
2022-12-29T11:27:31.219Z,99528.19
2022-12-29T11:32:32.709Z,99542.66
2022-12-29T11:37:41.060Z,99541.38
2022-12-29T11:42:49.542Z,99526.66
2022-12-29T11:48:02.055Z,99522.41
2022-12-29T11:53:31.933Z,99520.03
2022-12-29T11:58:37.389Z,99525.94
2022-12-29T12:03:51.930Z,99528.44
2022-12-29T12:09:03.892Z,99517.19
2022-12-29T12:14:12.978Z,99537.00
2022-12-29T12:19:35.794Z,99535.25
2022-12-29T12:24:56.445Z,99540.78
2022-12-29T12:30:03.919Z,99533.47
2022-12-29T12:35:05.731Z,99534.72
2022-12-29T12:40:26.058Z,99547.53
2022-12-29T12:45:52.915Z,99554.25
2022-12-29T12:51:14.816Z,99557.28
2022-12-29T12:56:51.966Z,99571.03
2022-12-29T13:02:09.966Z,99570.38
2022-12-29T13:07:23.845Z,99579.16
2022-12-29T13:12:41.173Z,99606.88
2022-12-29T13:18:11.266Z,99605.50
2022-12-29T13:23:25.457Z,99635.88
2022-12-29T13:28:37.060Z,99642.78
2022-12-29T13:34:03.764Z,99647.97
2022-12-29T13:39:21.277Z,99669.59
2022-12-29T13:44:36.430Z,99684.50
2022-12-29T13:49:39.115Z,99695.81
2022-12-29T13:55:08.348Z,99719.84
2022-12-29T14:00:19.200Z,99711.09
2022-12-29T14:05:23.438Z,99722.34
2022-12-29T14:10:36.393Z,99735.47
2022-12-29T14:15:44.647Z,99739.44
2022-12-29T14:21:00.274Z,99742.84
2022-12-29T14:26:07.849Z,99753.56
2022-12-29T14:31:15.305Z,99764.78
2022-12-29T14:36:27.646Z,99763.09
2022-12-29T14:41:36.107Z,99787.31
2022-12-29T14:46:48.133Z,99787.75
2022-12-29T14:51:52.852Z,99806.81
2022-12-29T14:56:57.940Z,99818.44
2022-12-29T15:02:13.174Z,99821.78
2022-12-29T15:07:16.115Z,99822.81
2022-12-29T15:12:31.699Z,99828.19
2022-12-29T15:17:35.503Z,99832.47
2022-12-29T15:22:37.028Z,99830.81
2022-12-29T15:27:39.730Z,99864.78
2022-12-29T15:32:44.345Z,99860.84
2022-12-29T15:37:45.717Z,99867.88
2022-12-29T15:43:28.768Z,99873.91
2022-12-29T15:48:31.958Z,99882.28
2022-12-29T15:53:34.593Z,99893.53
2022-12-29T15:58:49.457Z,99904.06
2022-12-29T16:03:52.884Z,99906.75
2022-12-29T16:09:15.485Z,99911.19
2022-12-29T16:14:25.763Z,99908.72
2022-12-29T16:19:37.039Z,99912.69
2022-12-29T16:24:41.221Z,99924.94
2022-12-29T16:29:42.802Z,99920.50
2022-12-29T16:34:46.080Z,99927.75
2022-12-29T16:39:47.583Z,99926.59
2022-12-29T16:44:49.055Z,99927.34
2022-12-29T16:49:53.948Z,99927.53
2022-12-29T16:54:59.165Z,99941.66
2022-12-29T17:00:04.981Z,99937.44
2022-12-29T17:05:08.785Z,99958.16
2022-12-29T17:10:11.414Z,99962.34
2022-12-29T17:15:20.580Z,99980.94
2022-12-29T17:20:23.497Z,99979.19
2022-12-29T17:25:37.341Z,99977.63
2022-12-29T17:30:40.912Z,99981.13
2022-12-29T17:35:42.824Z,99976.50
2022-12-29T17:40:44.749Z,99975.88
2022-12-29T17:45:52.696Z,99975.66
2022-12-29T17:50:54.594Z,99973.13
2022-12-29T17:55:56.535Z,99969.50
2022-12-29T18:01:00.035Z,99963.84
2022-12-29T18:06:02.351Z,99993.81
2022-12-29T18:11:05.193Z,99988.47
2022-12-29T18:16:07.934Z,99993.81
2022-12-29T18:21:20.118Z,99997.28
2022-12-29T18:26:31.420Z,99990.59
2022-12-29T18:31:34.252Z,99997.03
2022-12-29T18:36:35.732Z,99995.69
2022-12-29T18:41:37.181Z,99993.91
2022-12-29T18:46:38.734Z,100004.47
2022-12-29T18:51:40.257Z,100011.72
2022-12-29T18:56:41.807Z,100005.38
2022-12-29T19:01:43.571Z,100001.25
2022-12-29T19:06:45.687Z,100007.19
2022-12-29T19:11:47.179Z,100008.13
2022-12-29T19:16:49.482Z,100013.41
2022-12-29T19:21:56.338Z,100001.44
2022-12-29T19:26:57.953Z,100008.56
2022-12-29T19:31:59.499Z,100000.41
2022-12-29T19:37:01.122Z,100003.47
2022-12-29T19:42:05.485Z,100009.19
2022-12-29T19:47:07.065Z,100018.13
2022-12-29T19:52:08.545Z,100010.28
2022-12-29T19:57:10.058Z,100025.06
2022-12-29T20:02:23.568Z,100028.66
2022-12-29T20:07:25.965Z,100029.56
2022-12-29T20:12:29.434Z,100034.66
2022-12-29T20:18:02.475Z,100032.56
2022-12-29T20:22:52.529Z,100034.56
2022-12-29T20:27:54.157Z,100031.19
2022-12-29T20:32:55.693Z,100030.47
2022-12-29T20:37:57.273Z,100046.56
2022-12-29T20:42:58.941Z,100046.19
2022-12-29T20:48:00.382Z,100050.56
2022-12-29T20:53:02.003Z,100059.28
2022-12-29T21:03:25.729Z,100071.00
2022-12-29T21:08:30.012Z,100069.78
2022-12-29T21:13:31.997Z,100069.34
2022-12-29T21:18:34.569Z,100066.81
2022-12-29T21:23:39.568Z,100072.06
2022-12-29T21:28:41.605Z,100074.06
2022-12-29T21:33:43.098Z,100081.19
2022-12-29T21:38:44.815Z,100088.78
2022-12-29T21:44:07.414Z,100077.50
2022-12-29T21:49:09.206Z,100102.84
2022-12-29T21:54:31.127Z,100081.44
2022-12-29T21:59:51.354Z,100100.47
2022-12-29T22:05:11.596Z,100093.44
2022-12-29T22:10:32.239Z,100097.13
2022-12-29T22:15:37.264Z,100101.53
2022-12-29T22:20:38.854Z,100118.75
2022-12-29T22:25:41.019Z,100111.97
2022-12-29T22:30:42.814Z,100115.31
2022-12-29T22:35:44.934Z,100124.84
2022-12-29T22:40:46.418Z,100126.47
2022-12-29T22:45:47.894Z,100131.78
2022-12-29T22:50:49.325Z,100134.34
2022-12-29T22:55:50.806Z,100141.28
2022-12-29T23:00:52.234Z,100149.59
2022-12-29T23:05:59.149Z,100152.97
2022-12-29T23:11:01.235Z,100152.91
2022-12-29T23:16:03.090Z,100163.50
2022-12-29T23:21:05.633Z,100159.88
2022-12-29T23:26:07.879Z,100177.38
2022-12-29T23:31:09.951Z,100185.22
2022-12-29T23:36:11.841Z,100181.44
2022-12-29T23:41:13.345Z,100177.78
2022-12-29T23:46:18.532Z,100183.88
2022-12-29T23:51:20.191Z,100197.72
2022-12-29T23:56:23.089Z,100220.88
